sensor_id;sensor_type;location;lat;lon;timestamp;temperature;humidity
14555;DHT22;7364;50.870;4.722;2023-05-07T00:01:08;18.00;99.90
14555;DHT22;7364;50.870;4.722;2023-05-07T00:03:38;17.80;99.90
14555;DHT22;7364;50.870;4.722;2023-05-07T00:06:06;17.50;99.90
14555;DHT22;7364;50.870;4.722;2023-05-07T00:08:34;17.40;99.90
14555;DHT22;7364;50.870;4.722;2023-05-07T00:11:01;17.40;99.90
14555;DHT22;7364;50.870;4.722;2023-05-07T00:13:28;17.50;99.90
14555;DHT22;7364;50.870;4.722;2023-05-07T00:16:01;17.70;99.90
14555;DHT22;7364;50.870;4.722;2023-05-07T00:18:28;17.80;99.90
14555;DHT22;7364;50.870;4.722;2023-05-07T00:20:57;17.80;99.90
14555;DHT22;7364;50.870;4.722;2023-05-07T00:23:24;17.80;99.90
14555;DHT22;7364;50.870;4.722;2023-05-07T00:25:51;17.80;99.90
14555;DHT22;7364;50.870;4.722;2023-05-07T00:28:19;17.80;99.90
14555;DHT22;7364;50.870;4.722;2023-05-07T00:30:46;17.70;99.90
14555;DHT22;7364;50.870;4.722;2023-05-07T00:33:13;17.40;99.90
14555;DHT22;7364;50.870;4.722;2023-05-07T00:35:41;17.40;99.90
14555;DHT22;7364;50.870;4.722;2023-05-07T00:38:10;17.50;99.90
14555;DHT22;7364;50.870;4.722;2023-05-07T00:40:37;17.50;99.90
14555;DHT22;7364;50.870;4.722;2023-05-07T00:43:04;17.60;99.90
14555;DHT22;7364;50.870;4.722;2023-05-07T00:45:32;17.70;99.90
14555;DHT22;7364;50.870;4.722;2023-05-07T00:48:01;17.70;99.90
14555;DHT22;7364;50.870;4.722;2023-05-07T00:50:30;17.70;99.90
14555;DHT22;7364;50.870;4.722;2023-05-07T00:52:57;17.90;99.90
14555;DHT22;7364;50.870;4.722;2023-05-07T00:55:26;17.90;99.90
14555;DHT22;7364;50.870;4.722;2023-05-07T00:57:54;17.80;99.90
14555;DHT22;7364;50.870;4.722;2023-05-07T01:00:21;17.80;99.90
14555;DHT22;7364;50.870;4.722;2023-05-07T01:02:48;17.70;99.90
14555;DHT22;7364;50.870;4.722;2023-05-07T01:05:17;17.80;99.90
14555;DHT22;7364;50.870;4.722;2023-05-07T01:07:45;17.70;99.90
14555;DHT22;7364;50.870;4.722;2023-05-07T01:10:13;17.70;99.90
14555;DHT22;7364;50.870;4.722;2023-05-07T01:12:42;17.80;99.90
14555;DHT22;7364;50.870;4.722;2023-05-07T01:15:10;17.70;99.90
14555;DHT22;7364;50.870;4.722;2023-05-07T01:17:38;17.50;99.90
14555;DHT22;7364;50.870;4.722;2023-05-07T01:20:10;17.50;99.90
14555;DHT22;7364;50.870;4.722;2023-05-07T01:22:39;17.40;99.90
14555;DHT22;7364;50.870;4.722;2023-05-07T01:25:07;17.30;99.90
14555;DHT22;7364;50.870;4.722;2023-05-07T01:27:34;17.20;99.90
14555;DHT22;7364;50.870;4.722;2023-05-07T01:30:03;17.10;99.90
14555;DHT22;7364;50.870;4.722;2023-05-07T01:32:35;17.20;99.90
14555;DHT22;7364;50.870;4.722;2023-05-07T01:35:05;17.20;99.90
14555;DHT22;7364;50.870;4.722;2023-05-07T01:37:34;17.00;99.90
14555;DHT22;7364;50.870;4.722;2023-05-07T01:40:04;17.00;99.90
14555;DHT22;7364;50.870;4.722;2023-05-07T01:42:33;17.20;99.90
14555;DHT22;7364;50.870;4.722;2023-05-07T01:45:00;17.30;99.90
14555;DHT22;7364;50.870;4.722;2023-05-07T01:47:29;17.40;99.90
14555;DHT22;7364;50.870;4.722;2023-05-07T01:49:57;17.60;99.90
14555;DHT22;7364;50.870;4.722;2023-05-07T01:52:28;17.70;99.90
14555;DHT22;7364;50.870;4.722;2023-05-07T01:54:55;17.60;99.90
14555;DHT22;7364;50.870;4.722;2023-05-07T01:57:24;17.30;99.90
14555;DHT22;7364;50.870;4.722;2023-05-07T01:59:51;17.40;99.90
14555;DHT22;7364;50.870;4.722;2023-05-07T02:02:18;17.50;99.90
14555;DHT22;7364;50.870;4.722;2023-05-07T02:04:46;17.40;99.90
14555;DHT22;7364;50.870;4.722;2023-05-07T02:07:13;17.30;99.90
14555;DHT22;7364;50.870;4.722;2023-05-07T02:09:40;17.20;99.90
14555;DHT22;7364;50.870;4.722;2023-05-07T02:12:07;17.40;99.90
14555;DHT22;7364;50.870;4.722;2023-05-07T02:14:36;17.40;99.90
14555;DHT22;7364;50.870;4.722;2023-05-07T02:17:03;17.60;99.90
14555;DHT22;7364;50.870;4.722;2023-05-07T02:19:31;17.60;99.90
14555;DHT22;7364;50.870;4.722;2023-05-07T02:21:58;17.50;99.90
14555;DHT22;7364;50.870;4.722;2023-05-07T02:24:25;17.50;99.90
14555;DHT22;7364;50.870;4.722;2023-05-07T02:26:52;17.60;99.90
14555;DHT22;7364;50.870;4.722;2023-05-07T02:29:19;17.60;99.90
14555;DHT22;7364;50.870;4.722;2023-05-07T02:31:48;17.70;99.90
14555;DHT22;7364;50.870;4.722;2023-05-07T02:34:18;17.70;99.90
14555;DHT22;7364;50.870;4.722;2023-05-07T02:36:46;17.60;99.90
14555;DHT22;7364;50.870;4.722;2023-05-07T02:39:13;17.50;99.90
14555;DHT22;7364;50.870;4.722;2023-05-07T02:41:41;17.50;99.90
14555;DHT22;7364;50.870;4.722;2023-05-07T02:44:08;17.50;99.90
14555;DHT22;7364;50.870;4.722;2023-05-07T02:46:35;17.50;99.90
14555;DHT22;7364;50.870;4.722;2023-05-07T02:49:04;17.40;99.90
14555;DHT22;7364;50.870;4.722;2023-05-07T02:51:31;17.50;99.90
14555;DHT22;7364;50.870;4.722;2023-05-07T02:53:59;17.60;99.90
14555;DHT22;7364;50.870;4.722;2023-05-07T02:56:26;17.40;99.90
14555;DHT22;7364;50.870;4.722;2023-05-07T02:58:54;17.30;99.90
14555;DHT22;7364;50.870;4.722;2023-05-07T03:01:21;16.90;99.90
14555;DHT22;7364;50.870;4.722;2023-05-07T03:03:48;16.80;99.90
14555;DHT22;7364;50.870;4.722;2023-05-07T03:06:17;16.70;99.90
14555;DHT22;7364;50.870;4.722;2023-05-07T03:08:44;16.70;99.90
14555;DHT22;7364;50.870;4.722;2023-05-07T03:11:11;16.50;99.90
14555;DHT22;7364;50.870;4.722;2023-05-07T03:13:38;16.60;99.90
14555;DHT22;7364;50.870;4.722;2023-05-07T03:16:06;16.40;99.90
14555;DHT22;7364;50.870;4.722;2023-05-07T03:18:33;16.40;99.90
14555;DHT22;7364;50.870;4.722;2023-05-07T03:21:01;16.60;99.90
14555;DHT22;7364;50.870;4.722;2023-05-07T03:23:29;16.70;99.90
14555;DHT22;7364;50.870;4.722;2023-05-07T03:25:57;16.90;99.90
14555;DHT22;7364;50.870;4.722;2023-05-07T03:28:24;16.80;99.90
14555;DHT22;7364;50.870;4.722;2023-05-07T03:30:52;16.90;99.90
14555;DHT22;7364;50.870;4.722;2023-05-07T03:33:19;17.00;99.90
14555;DHT22;7364;50.870;4.722;2023-05-07T03:35:46;17.30;99.90
14555;DHT22;7364;50.870;4.722;2023-05-07T03:38:14;17.30;99.90
14555;DHT22;7364;50.870;4.722;2023-05-07T03:40:42;17.40;99.90
14555;DHT22;7364;50.870;4.722;2023-05-07T03:43:10;17.30;99.90
14555;DHT22;7364;50.870;4.722;2023-05-07T03:45:37;17.10;99.90
14555;DHT22;7364;50.870;4.722;2023-05-07T03:48:04;17.10;99.90
14555;DHT22;7364;50.870;4.722;2023-05-07T03:50:32;17.10;99.90
14555;DHT22;7364;50.870;4.722;2023-05-07T03:52:59;17.10;99.90
14555;DHT22;7364;50.870;4.722;2023-05-07T03:55:26;17.20;99.90
14555;DHT22;7364;50.870;4.722;2023-05-07T03:57:56;17.40;99.90
14555;DHT22;7364;50.870;4.722;2023-05-07T04:00:23;17.40;99.90
14555;DHT22;7364;50.870;4.722;2023-05-07T04:02:50;17.50;99.90
14555;DHT22;7364;50.870;4.722;2023-05-07T04:05:17;17.60;99.90
14555;DHT22;7364;50.870;4.722;2023-05-07T04:07:45;17.40;99.90
14555;DHT22;7364;50.870;4.722;2023-05-07T04:10:13;17.60;99.90
14555;DHT22;7364;50.870;4.722;2023-05-07T04:12:40;17.60;99.90
14555;DHT22;7364;50.870;4.722;2023-05-07T04:15:10;17.60;99.90
14555;DHT22;7364;50.870;4.722;2023-05-07T04:17:37;17.50;99.90
14555;DHT22;7364;50.870;4.722;2023-05-07T04:20:06;17.50;99.90
14555;DHT22;7364;50.870;4.722;2023-05-07T04:22:33;17.50;99.90
14555;DHT22;7364;50.870;4.722;2023-05-07T04:25:00;17.50;99.90
14555;DHT22;7364;50.870;4.722;2023-05-07T04:27:28;17.60;99.90
14555;DHT22;7364;50.870;4.722;2023-05-07T04:29:55;17.60;99.90
14555;DHT22;7364;50.870;4.722;2023-05-07T04:32:24;17.60;99.90
14555;DHT22;7364;50.870;4.722;2023-05-07T04:34:51;17.60;99.90
14555;DHT22;7364;50.870;4.722;2023-05-07T04:37:19;17.50;99.90
14555;DHT22;7364;50.870;4.722;2023-05-07T04:39:46;17.60;99.90
14555;DHT22;7364;50.870;4.722;2023-05-07T04:42:15;17.60;99.90
14555;DHT22;7364;50.870;4.722;2023-05-07T04:44:42;17.60;99.90
14555;DHT22;7364;50.870;4.722;2023-05-07T04:47:10;17.50;99.90
14555;DHT22;7364;50.870;4.722;2023-05-07T04:49:39;17.30;99.90
14555;DHT22;7364;50.870;4.722;2023-05-07T04:52:06;17.40;99.90
14555;DHT22;7364;50.870;4.722;2023-05-07T04:54:33;17.40;99.90
14555;DHT22;7364;50.870;4.722;2023-05-07T04:57:03;17.40;99.90
14555;DHT22;7364;50.870;4.722;2023-05-07T04:59:30;17.50;99.90
14555;DHT22;7364;50.870;4.722;2023-05-07T05:01:57;17.40;99.90
14555;DHT22;7364;50.870;4.722;2023-05-07T05:04:25;17.40;99.90
14555;DHT22;7364;50.870;4.722;2023-05-07T05:06:53;17.50;99.90
14555;DHT22;7364;50.870;4.722;2023-05-07T05:09:21;17.70;99.90
14555;DHT22;7364;50.870;4.722;2023-05-07T05:11:48;17.70;99.90
14555;DHT22;7364;50.870;4.722;2023-05-07T05:14:15;17.90;99.90
14555;DHT22;7364;50.870;4.722;2023-05-07T05:16:42;18.00;99.90
14555;DHT22;7364;50.870;4.722;2023-05-07T05:19:10;18.10;99.90
14555;DHT22;7364;50.870;4.722;2023-05-07T05:21:37;18.10;99.90
14555;DHT22;7364;50.870;4.722;2023-05-07T05:24:06;18.20;99.90
14555;DHT22;7364;50.870;4.722;2023-05-07T05:26:33;18.10;99.90
14555;DHT22;7364;50.870;4.722;2023-05-07T05:29:01;18.10;99.90
14555;DHT22;7364;50.870;4.722;2023-05-07T05:31:29;18.20;99.90
14555;DHT22;7364;50.870;4.722;2023-05-07T05:33:56;18.30;99.90
14555;DHT22;7364;50.870;4.722;2023-05-07T05:36:23;18.30;99.90
14555;DHT22;7364;50.870;4.722;2023-05-07T05:38:51;18.30;99.90
14555;DHT22;7364;50.870;4.722;2023-05-07T05:41:20;18.20;99.90
14555;DHT22;7364;50.870;4.722;2023-05-07T05:43:47;18.00;99.90
14555;DHT22;7364;50.870;4.722;2023-05-07T05:46:15;17.80;99.90
14555;DHT22;7364;50.870;4.722;2023-05-07T05:48:42;17.80;99.90
14555;DHT22;7364;50.870;4.722;2023-05-07T05:51:10;17.80;99.90
14555;DHT22;7364;50.870;4.722;2023-05-07T05:53:37;18.00;99.90
14555;DHT22;7364;50.870;4.722;2023-05-07T05:56:05;17.80;99.90
14555;DHT22;7364;50.870;4.722;2023-05-07T05:58:34;18.20;99.90
14555;DHT22;7364;50.870;4.722;2023-05-07T06:01:01;18.30;99.90
14555;DHT22;7364;50.870;4.722;2023-05-07T06:03:29;18.40;99.90
14555;DHT22;7364;50.870;4.722;2023-05-07T06:05:58;18.60;99.90
14555;DHT22;7364;50.870;4.722;2023-05-07T06:08:25;18.70;99.90
14555;DHT22;7364;50.870;4.722;2023-05-07T06:10:53;18.80;99.90
14555;DHT22;7364;50.870;4.722;2023-05-07T06:13:20;18.60;99.90
14555;DHT22;7364;50.870;4.722;2023-05-07T06:15:49;18.90;99.90
14555;DHT22;7364;50.870;4.722;2023-05-07T06:18:16;19.10;99.90
14555;DHT22;7364;50.870;4.722;2023-05-07T06:20:43;18.90;99.90
14555;DHT22;7364;50.870;4.722;2023-05-07T06:23:10;18.80;99.90
14555;DHT22;7364;50.870;4.722;2023-05-07T06:25:38;19.00;99.90
14555;DHT22;7364;50.870;4.722;2023-05-07T06:28:06;19.10;99.90
14555;DHT22;7364;50.870;4.722;2023-05-07T06:30:34;18.80;99.90
14555;DHT22;7364;50.870;4.722;2023-05-07T06:33:02;19.00;99.90
14555;DHT22;7364;50.870;4.722;2023-05-07T06:35:30;18.80;99.90
14555;DHT22;7364;50.870;4.722;2023-05-07T06:37:57;18.60;99.90
14555;DHT22;7364;50.870;4.722;2023-05-07T06:40:24;18.70;99.90
14555;DHT22;7364;50.870;4.722;2023-05-07T06:42:51;18.30;99.90
14555;DHT22;7364;50.870;4.722;2023-05-07T06:45:19;18.10;99.90
14555;DHT22;7364;50.870;4.722;2023-05-07T06:47:46;17.80;99.90
14555;DHT22;7364;50.870;4.722;2023-05-07T06:50:15;17.40;99.90
14555;DHT22;7364;50.870;4.722;2023-05-07T06:52:43;17.20;99.90
14555;DHT22;7364;50.870;4.722;2023-05-07T06:55:10;16.90;99.90
14555;DHT22;7364;50.870;4.722;2023-05-07T06:57:38;16.80;99.90
14555;DHT22;7364;50.870;4.722;2023-05-07T07:00:06;16.80;99.90
14555;DHT22;7364;50.870;4.722;2023-05-07T07:02:34;17.10;99.90
14555;DHT22;7364;50.870;4.722;2023-05-07T07:05:02;17.30;99.90
14555;DHT22;7364;50.870;4.722;2023-05-07T07:07:30;17.50;99.90
14555;DHT22;7364;50.870;4.722;2023-05-07T07:09:58;17.50;99.90
14555;DHT22;7364;50.870;4.722;2023-05-07T07:12:25;17.20;99.90
14555;DHT22;7364;50.870;4.722;2023-05-07T07:14:52;17.00;99.90
14555;DHT22;7364;50.870;4.722;2023-05-07T07:17:20;17.00;99.90
14555;DHT22;7364;50.870;4.722;2023-05-07T07:19:47;17.10;99.90
14555;DHT22;7364;50.870;4.722;2023-05-07T07:22:14;17.10;99.90
14555;DHT22;7364;50.870;4.722;2023-05-07T07:24:43;17.30;99.90
14555;DHT22;7364;50.870;4.722;2023-05-07T07:27:10;17.50;99.90
14555;DHT22;7364;50.870;4.722;2023-05-07T07:29:38;17.60;99.90
14555;DHT22;7364;50.870;4.722;2023-05-07T07:32:05;17.70;99.90
14555;DHT22;7364;50.870;4.722;2023-05-07T07:34:32;17.90;99.90
14555;DHT22;7364;50.870;4.722;2023-05-07T07:37:00;17.60;99.90
14555;DHT22;7364;50.870;4.722;2023-05-07T07:39:31;17.60;99.90
14555;DHT22;7364;50.870;4.722;2023-05-07T07:42:00;17.70;99.90
14555;DHT22;7364;50.870;4.722;2023-05-07T07:44:28;17.60;99.90
14555;DHT22;7364;50.870;4.722;2023-05-07T07:46:55;17.70;99.90
14555;DHT22;7364;50.870;4.722;2023-05-07T07:49:23;17.50;99.90
14555;DHT22;7364;50.870;4.722;2023-05-07T07:51:50;17.50;99.90
14555;DHT22;7364;50.870;4.722;2023-05-07T07:54:18;17.40;99.90
14555;DHT22;7364;50.870;4.722;2023-05-07T07:56:45;17.20;99.90
14555;DHT22;7364;50.870;4.722;2023-05-07T07:59:14;17.20;99.90
14555;DHT22;7364;50.870;4.722;2023-05-07T08:01:44;17.30;99.90
14555;DHT22;7364;50.870;4.722;2023-05-07T08:04:14;17.30;99.90
14555;DHT22;7364;50.870;4.722;2023-05-07T08:06:41;17.30;99.90
14555;DHT22;7364;50.870;4.722;2023-05-07T08:09:08;17.30;99.90
14555;DHT22;7364;50.870;4.722;2023-05-07T08:11:36;17.30;99.90
14555;DHT22;7364;50.870;4.722;2023-05-07T08:14:03;17.30;99.90
14555;DHT22;7364;50.870;4.722;2023-05-07T08:16:32;17.30;99.90
14555;DHT22;7364;50.870;4.722;2023-05-07T08:18:59;17.30;99.90
14555;DHT22;7364;50.870;4.722;2023-05-07T08:21:27;17.50;99.90
14555;DHT22;7364;50.870;4.722;2023-05-07T08:23:54;17.70;99.90
14555;DHT22;7364;50.870;4.722;2023-05-07T08:26:21;17.90;99.90
14555;DHT22;7364;50.870;4.722;2023-05-07T08:28:49;17.80;99.90
14555;DHT22;7364;50.870;4.722;2023-05-07T08:31:16;17.70;99.90
14555;DHT22;7364;50.870;4.722;2023-05-07T08:33:45;17.90;99.90
14555;DHT22;7364;50.870;4.722;2023-05-07T08:36:12;18.00;99.90
14555;DHT22;7364;50.870;4.722;2023-05-07T08:38:39;17.80;99.90
14555;DHT22;7364;50.870;4.722;2023-05-07T08:41:10;17.60;99.90
14555;DHT22;7364;50.870;4.722;2023-05-07T08:43:38;17.60;99.90
14555;DHT22;7364;50.870;4.722;2023-05-07T08:46:09;17.60;99.90
14555;DHT22;7364;50.870;4.722;2023-05-07T08:48:37;17.60;99.90
14555;DHT22;7364;50.870;4.722;2023-05-07T08:51:05;17.50;99.90
14555;DHT22;7364;50.870;4.722;2023-05-07T08:53:33;17.50;99.90
14555;DHT22;7364;50.870;4.722;2023-05-07T08:56:01;17.40;99.90
14555;DHT22;7364;50.870;4.722;2023-05-07T08:58:29;17.40;99.90
14555;DHT22;7364;50.870;4.722;2023-05-07T09:00:56;17.50;99.90
14555;DHT22;7364;50.870;4.722;2023-05-07T09:03:24;17.50;99.90
14555;DHT22;7364;50.870;4.722;2023-05-07T09:05:51;17.40;99.90
14555;DHT22;7364;50.870;4.722;2023-05-07T09:08:25;17.40;99.90
14555;DHT22;7364;50.870;4.722;2023-05-07T09:10:53;17.40;99.90
14555;DHT22;7364;50.870;4.722;2023-05-07T09:13:20;17.40;99.90
14555;DHT22;7364;50.870;4.722;2023-05-07T09:15:47;17.30;99.90
14555;DHT22;7364;50.870;4.722;2023-05-07T09:18:15;17.50;99.90
14555;DHT22;7364;50.870;4.722;2023-05-07T09:20:42;17.70;99.90
14555;DHT22;7364;50.870;4.722;2023-05-07T09:23:09;17.90;99.90
14555;DHT22;7364;50.870;4.722;2023-05-07T09:25:38;18.00;99.90
14555;DHT22;7364;50.870;4.722;2023-05-07T09:28:05;18.00;99.90
14555;DHT22;7364;50.870;4.722;2023-05-07T09:30:33;18.20;99.90
14555;DHT22;7364;50.870;4.722;2023-05-07T09:33:03;18.00;99.90
14555;DHT22;7364;50.870;4.722;2023-05-07T09:35:30;18.00;99.90
14555;DHT22;7364;50.870;4.722;2023-05-07T09:37:58;18.10;99.90
14555;DHT22;7364;50.870;4.722;2023-05-07T09:40:27;18.20;99.90
14555;DHT22;7364;50.870;4.722;2023-05-07T09:42:56;18.50;99.90
14555;DHT22;7364;50.870;4.722;2023-05-07T09:45:25;18.70;99.90
14555;DHT22;7364;50.870;4.722;2023-05-07T09:47:54;18.80;99.90
14555;DHT22;7364;50.870;4.722;2023-05-07T09:50:26;18.90;99.90
14555;DHT22;7364;50.870;4.722;2023-05-07T09:52:55;19.20;99.90
14555;DHT22;7364;50.870;4.722;2023-05-07T09:55:22;19.30;99.90
14555;DHT22;7364;50.870;4.722;2023-05-07T09:57:50;19.20;99.90
14555;DHT22;7364;50.870;4.722;2023-05-07T10:00:20;19.50;99.90
14555;DHT22;7364;50.870;4.722;2023-05-07T10:02:48;19.60;99.90
14555;DHT22;7364;50.870;4.722;2023-05-07T10:05:18;19.80;99.90
14555;DHT22;7364;50.870;4.722;2023-05-07T10:07:46;20.00;99.90
14555;DHT22;7364;50.870;4.722;2023-05-07T10:10:14;19.90;99.90
14555;DHT22;7364;50.870;4.722;2023-05-07T10:12:42;20.00;99.90
14555;DHT22;7364;50.870;4.722;2023-05-07T10:15:10;20.10;99.90
14555;DHT22;7364;50.870;4.722;2023-05-07T10:17:39;20.20;99.90
14555;DHT22;7364;50.870;4.722;2023-05-07T10:20:07;20.10;99.90
14555;DHT22;7364;50.870;4.722;2023-05-07T10:22:38;19.80;99.90
14555;DHT22;7364;50.870;4.722;2023-05-07T10:25:13;19.40;99.90
14555;DHT22;7364;50.870;4.722;2023-05-07T10:27:42;19.30;99.90
14555;DHT22;7364;50.870;4.722;2023-05-07T10:30:18;19.00;99.90
14555;DHT22;7364;50.870;4.722;2023-05-07T10:32:53;18.90;99.90
14555;DHT22;7364;50.870;4.722;2023-05-07T10:35:24;19.20;99.90
14555;DHT22;7364;50.870;4.722;2023-05-07T10:37:53;19.10;99.90
14555;DHT22;7364;50.870;4.722;2023-05-07T10:40:21;18.80;99.90
14555;DHT22;7364;50.870;4.722;2023-05-07T10:42:55;18.60;99.90
14555;DHT22;7364;50.870;4.722;2023-05-07T10:45:24;18.50;99.90
14555;DHT22;7364;50.870;4.722;2023-05-07T10:48:12;18.50;99.90
14555;DHT22;7364;50.870;4.722;2023-05-07T10:50:40;18.50;99.90
14555;DHT22;7364;50.870;4.722;2023-05-07T10:53:24;18.70;99.90
14555;DHT22;7364;50.870;4.722;2023-05-07T10:56:26;18.80;99.90
14555;DHT22;7364;50.870;4.722;2023-05-07T11:01:52;18.70;99.90
14555;DHT22;7364;50.870;4.722;2023-05-07T11:04:21;18.60;99.90
14555;DHT22;7364;50.870;4.722;2023-05-07T11:07:29;18.60;99.90
14555;DHT22;7364;50.870;4.722;2023-05-07T11:09:58;18.70;99.90
14555;DHT22;7364;50.870;4.722;2023-05-07T11:12:54;18.90;99.90
14555;DHT22;7364;50.870;4.722;2023-05-07T11:15:38;19.00;99.90
14555;DHT22;7364;50.870;4.722;2023-05-07T11:18:07;19.10;99.90
14555;DHT22;7364;50.870;4.722;2023-05-07T11:20:54;19.30;99.90
14555;DHT22;7364;50.870;4.722;2023-05-07T11:23:55;19.40;99.90
14555;DHT22;7364;50.870;4.722;2023-05-07T11:26:26;19.60;99.90
14555;DHT22;7364;50.870;4.722;2023-05-07T11:28:54;19.80;99.90
14555;DHT22;7364;50.870;4.722;2023-05-07T11:31:24;20.00;99.90
14555;DHT22;7364;50.870;4.722;2023-05-07T11:33:52;19.90;99.90
14555;DHT22;7364;50.870;4.722;2023-05-07T11:36:22;19.80;99.90
14555;DHT22;7364;50.870;4.722;2023-05-07T11:38:50;20.00;99.90
14555;DHT22;7364;50.870;4.722;2023-05-07T11:41:17;20.20;99.90
14555;DHT22;7364;50.870;4.722;2023-05-07T11:43:54;20.10;99.90
14555;DHT22;7364;50.870;4.722;2023-05-07T11:46:22;20.30;99.90
14555;DHT22;7364;50.870;4.722;2023-05-07T11:48:50;20.50;99.90
14555;DHT22;7364;50.870;4.722;2023-05-07T11:51:23;21.00;99.90
14555;DHT22;7364;50.870;4.722;2023-05-07T11:53:52;21.60;99.90
14555;DHT22;7364;50.870;4.722;2023-05-07T11:56:20;21.90;99.90
14555;DHT22;7364;50.870;4.722;2023-05-07T11:58:47;21.90;99.90
14555;DHT22;7364;50.870;4.722;2023-05-07T12:01:15;21.90;99.90
14555;DHT22;7364;50.870;4.722;2023-05-07T12:03:45;21.40;99.90
14555;DHT22;7364;50.870;4.722;2023-05-07T12:06:14;21.20;99.90
14555;DHT22;7364;50.870;4.722;2023-05-07T12:08:44;21.40;99.90
14555;DHT22;7364;50.870;4.722;2023-05-07T12:11:14;21.60;99.90
14555;DHT22;7364;50.870;4.722;2023-05-07T12:13:43;22.10;99.90
14555;DHT22;7364;50.870;4.722;2023-05-07T12:16:11;22.60;99.90
14555;DHT22;7364;50.870;4.722;2023-05-07T12:18:39;22.80;99.90
14555;DHT22;7364;50.870;4.722;2023-05-07T12:21:07;23.10;99.90
14555;DHT22;7364;50.870;4.722;2023-05-07T12:23:36;23.30;99.90
14555;DHT22;7364;50.870;4.722;2023-05-07T12:26:05;23.40;99.90
14555;DHT22;7364;50.870;4.722;2023-05-07T12:28:36;23.50;99.90
14555;DHT22;7364;50.870;4.722;2023-05-07T12:31:04;23.60;99.90
14555;DHT22;7364;50.870;4.722;2023-05-07T12:33:32;23.50;99.90
14555;DHT22;7364;50.870;4.722;2023-05-07T12:36:03;23.60;99.90
14555;DHT22;7364;50.870;4.722;2023-05-07T12:38:35;23.70;99.90
14555;DHT22;7364;50.870;4.722;2023-05-07T12:41:05;23.80;99.90
14555;DHT22;7364;50.870;4.722;2023-05-07T12:43:32;23.80;99.90
14555;DHT22;7364;50.870;4.722;2023-05-07T12:46:01;23.20;99.90
14555;DHT22;7364;50.870;4.722;2023-05-07T12:48:29;23.20;99.90
14555;DHT22;7364;50.870;4.722;2023-05-07T12:50:57;23.50;99.90
14555;DHT22;7364;50.870;4.722;2023-05-07T12:53:25;23.60;99.90
14555;DHT22;7364;50.870;4.722;2023-05-07T12:55:54;23.50;99.90
14555;DHT22;7364;50.870;4.722;2023-05-07T12:58:25;23.20;99.90
14555;DHT22;7364;50.870;4.722;2023-05-07T13:00:53;23.20;99.90
14555;DHT22;7364;50.870;4.722;2023-05-07T13:03:25;23.50;99.90
14555;DHT22;7364;50.870;4.722;2023-05-07T13:05:53;22.90;99.90
14555;DHT22;7364;50.870;4.722;2023-05-07T13:08:28;22.70;99.90
14555;DHT22;7364;50.870;4.722;2023-05-07T13:10:56;23.20;99.90
14555;DHT22;7364;50.870;4.722;2023-05-07T13:13:25;23.40;99.90
14555;DHT22;7364;50.870;4.722;2023-05-07T13:15:52;23.40;99.90
14555;DHT22;7364;50.870;4.722;2023-05-07T13:18:19;23.60;99.90
14555;DHT22;7364;50.870;4.722;2023-05-07T13:20:46;23.90;99.90
14555;DHT22;7364;50.870;4.722;2023-05-07T13:23:14;23.80;99.90
14555;DHT22;7364;50.870;4.722;2023-05-07T13:25:41;23.20;99.90
14555;DHT22;7364;50.870;4.722;2023-05-07T13:28:08;23.00;99.90
14555;DHT22;7364;50.870;4.722;2023-05-07T13:30:36;22.90;99.90
14555;DHT22;7364;50.870;4.722;2023-05-07T13:33:04;22.60;99.90
14555;DHT22;7364;50.870;4.722;2023-05-07T13:35:31;22.30;99.90
14555;DHT22;7364;50.870;4.722;2023-05-07T13:37:58;22.00;99.90
14555;DHT22;7364;50.870;4.722;2023-05-07T13:40:26;22.20;99.90
14555;DHT22;7364;50.870;4.722;2023-05-07T13:42:53;22.50;99.90
14555;DHT22;7364;50.870;4.722;2023-05-07T13:45:20;22.40;99.90
14555;DHT22;7364;50.870;4.722;2023-05-07T13:47:52;22.40;99.90
14555;DHT22;7364;50.870;4.722;2023-05-07T13:50:19;21.90;99.90
14555;DHT22;7364;50.870;4.722;2023-05-07T13:52:47;21.50;99.90
14555;DHT22;7364;50.870;4.722;2023-05-07T13:55:16;21.10;99.90
14555;DHT22;7364;50.870;4.722;2023-05-07T13:57:44;20.90;99.90
14555;DHT22;7364;50.870;4.722;2023-05-07T14:00:12;20.90;99.90
14555;DHT22;7364;50.870;4.722;2023-05-07T14:02:39;20.90;99.90
14555;DHT22;7364;50.870;4.722;2023-05-07T14:05:08;20.80;99.90
14555;DHT22;7364;50.870;4.722;2023-05-07T14:07:36;20.90;99.90
14555;DHT22;7364;50.870;4.722;2023-05-07T14:10:04;21.30;99.90
14555;DHT22;7364;50.870;4.722;2023-05-07T14:12:32;21.40;99.90
14555;DHT22;7364;50.870;4.722;2023-05-07T14:14:59;21.10;99.90
14555;DHT22;7364;50.870;4.722;2023-05-07T14:17:32;21.10;99.90
14555;DHT22;7364;50.870;4.722;2023-05-07T14:20:06;21.10;99.90
14555;DHT22;7364;50.870;4.722;2023-05-07T14:22:35;21.20;99.90
14555;DHT22;7364;50.870;4.722;2023-05-07T14:25:02;20.90;99.90
14555;DHT22;7364;50.870;4.722;2023-05-07T14:27:29;20.90;99.90
14555;DHT22;7364;50.870;4.722;2023-05-07T14:29:56;21.30;99.90
14555;DHT22;7364;50.870;4.722;2023-05-07T14:32:24;21.10;99.90
14555;DHT22;7364;50.870;4.722;2023-05-07T14:34:51;21.00;99.90
14555;DHT22;7364;50.870;4.722;2023-05-07T14:37:18;20.80;99.90
14555;DHT22;7364;50.870;4.722;2023-05-07T14:39:47;20.50;99.90
14555;DHT22;7364;50.870;4.722;2023-05-07T14:42:15;20.40;99.90
14555;DHT22;7364;50.870;4.722;2023-05-07T14:44:42;20.60;99.90
14555;DHT22;7364;50.870;4.722;2023-05-07T14:47:11;20.50;99.90
14555;DHT22;7364;50.870;4.722;2023-05-07T14:49:38;20.60;99.90
14555;DHT22;7364;50.870;4.722;2023-05-07T14:52:06;20.60;99.90
14555;DHT22;7364;50.870;4.722;2023-05-07T14:54:36;20.90;99.90
14555;DHT22;7364;50.870;4.722;2023-05-07T14:57:05;21.30;99.90
14555;DHT22;7364;50.870;4.722;2023-05-07T14:59:33;21.50;99.90
14555;DHT22;7364;50.870;4.722;2023-05-07T15:02:02;21.80;99.90
14555;DHT22;7364;50.870;4.722;2023-05-07T15:04:33;21.80;99.90
14555;DHT22;7364;50.870;4.722;2023-05-07T15:07:00;21.80;99.90
14555;DHT22;7364;50.870;4.722;2023-05-07T15:09:27;21.70;99.90
14555;DHT22;7364;50.870;4.722;2023-05-07T15:11:54;22.00;99.90
14555;DHT22;7364;50.870;4.722;2023-05-07T15:14:23;22.30;99.90
14555;DHT22;7364;50.870;4.722;2023-05-07T15:16:50;22.40;99.90
14555;DHT22;7364;50.870;4.722;2023-05-07T15:19:18;22.20;99.90
14555;DHT22;7364;50.870;4.722;2023-05-07T15:21:45;22.40;99.90
14555;DHT22;7364;50.870;4.722;2023-05-07T15:24:13;22.70;99.90
14555;DHT22;7364;50.870;4.722;2023-05-07T15:26:40;22.80;99.90
14555;DHT22;7364;50.870;4.722;2023-05-07T15:29:08;23.00;99.90
14555;DHT22;7364;50.870;4.722;2023-05-07T15:31:38;23.20;99.90
14555;DHT22;7364;50.870;4.722;2023-05-07T15:34:05;23.20;99.90
14555;DHT22;7364;50.870;4.722;2023-05-07T15:36:32;23.20;99.90
14555;DHT22;7364;50.870;4.722;2023-05-07T15:39:00;23.00;99.90
14555;DHT22;7364;50.870;4.722;2023-05-07T15:41:28;23.10;99.90
14555;DHT22;7364;50.870;4.722;2023-05-07T15:43:55;22.90;99.90
14555;DHT22;7364;50.870;4.722;2023-05-07T15:46:24;22.60;99.90
14555;DHT22;7364;50.870;4.722;2023-05-07T15:48:53;22.50;99.90
14555;DHT22;7364;50.870;4.722;2023-05-07T15:51:21;22.20;99.90
14555;DHT22;7364;50.870;4.722;2023-05-07T15:53:49;22.00;99.90
14555;DHT22;7364;50.870;4.722;2023-05-07T15:56:18;22.10;99.90